sensor_id;sensor_type;location;lat;lon;timestamp;P1;durP1;ratioP1;P2;durP2;ratioP2
23270;SDS011;11804;51.118;17.058;2023-07-20T00:00:46;0.98;;;0.88;;
23270;SDS011;11804;51.118;17.058;2023-07-20T00:03:15;1.62;;;1.20;;
23270;SDS011;11804;51.118;17.058;2023-07-20T00:05:47;1.22;;;0.95;;
23270;SDS011;11804;51.118;17.058;2023-07-20T00:08:15;2.67;;;1.17;;
23270;SDS011;11804;51.118;17.058;2023-07-20T00:10:45;1.25;;;1.00;;
23270;SDS011;11804;51.118;17.058;2023-07-20T00:13:13;2.15;;;1.30;;
23270;SDS011;11804;51.118;17.058;2023-07-20T00:15:41;2.30;;;1.10;;
23270;SDS011;11804;51.118;17.058;2023-07-20T00:18:09;2.00;;;1.15;;
23270;SDS011;11804;51.118;17.058;2023-07-20T00:20:37;1.92;;;1.20;;
23270;SDS011;11804;51.118;17.058;2023-07-20T00:23:05;1.70;;;1.25;;
23270;SDS011;11804;51.118;17.058;2023-07-20T00:25:33;2.98;;;1.17;;
23270;SDS011;11804;51.118;17.058;2023-07-20T00:28:01;2.12;;;1.42;;
23270;SDS011;11804;51.118;17.058;2023-07-20T00:30:29;2.10;;;1.55;;
23270;SDS011;11804;51.118;17.058;2023-07-20T00:32:56;1.57;;;1.25;;
23270;SDS011;11804;51.118;17.058;2023-07-20T00:35:25;2.17;;;1.30;;
23270;SDS011;11804;51.118;17.058;2023-07-20T00:37:53;2.10;;;1.25;;
23270;SDS011;11804;51.118;17.058;2023-07-20T00:40:20;2.05;;;1.20;;
23270;SDS011;11804;51.118;17.058;2023-07-20T00:42:48;1.40;;;1.02;;
23270;SDS011;11804;51.118;17.058;2023-07-20T00:45:15;1.42;;;1.22;;
23270;SDS011;11804;51.118;17.058;2023-07-20T00:47:43;3.15;;;1.25;;
23270;SDS011;11804;51.118;17.058;2023-07-20T00:50:11;2.08;;;1.00;;
23270;SDS011;11804;51.118;17.058;2023-07-20T00:52:39;1.70;;;1.10;;
23270;SDS011;11804;51.118;17.058;2023-07-20T00:55:08;1.77;;;1.20;;
23270;SDS011;11804;51.118;17.058;2023-07-20T00:57:37;1.57;;;1.02;;
23270;SDS011;11804;51.118;17.058;2023-07-20T01:00:05;1.77;;;1.30;;
23270;SDS011;11804;51.118;17.058;2023-07-20T01:02:33;1.20;;;1.10;;
23270;SDS011;11804;51.118;17.058;2023-07-20T01:05:02;2.70;;;1.22;;
23270;SDS011;11804;51.118;17.058;2023-07-20T01:07:36;1.85;;;1.17;;
23270;SDS011;11804;51.118;17.058;2023-07-20T01:10:10;2.17;;;1.30;;
23270;SDS011;11804;51.118;17.058;2023-07-20T01:12:42;1.50;;;1.40;;
23270;SDS011;11804;51.118;17.058;2023-07-20T01:15:11;3.50;;;1.45;;
23270;SDS011;11804;51.118;17.058;2023-07-20T01:17:39;2.00;;;1.07;;
23270;SDS011;11804;51.118;17.058;2023-07-20T01:20:07;1.82;;;1.37;;
23270;SDS011;11804;51.118;17.058;2023-07-20T01:33:43;2.00;;;1.12;;
23270;SDS011;11804;51.118;17.058;2023-07-20T01:36:13;2.98;;;1.52;;
23270;SDS011;11804;51.118;17.058;2023-07-20T01:38:45;2.05;;;1.45;;
23270;SDS011;11804;51.118;17.058;2023-07-20T01:41:14;2.70;;;1.30;;
23270;SDS011;11804;51.118;17.058;2023-07-20T01:43:43;0.85;;;0.80;;
23270;SDS011;11804;51.118;17.058;2023-07-20T01:46:11;2.85;;;1.37;;
23270;SDS011;11804;51.118;17.058;2023-07-20T01:48:39;1.95;;;1.17;;
23270;SDS011;11804;51.118;17.058;2023-07-20T01:51:07;2.17;;;1.20;;
23270;SDS011;11804;51.118;17.058;2023-07-20T01:53:35;2.60;;;1.20;;
23270;SDS011;11804;51.118;17.058;2023-07-20T01:56:03;2.33;;;1.10;;
23270;SDS011;11804;51.118;17.058;2023-07-20T01:58:32;4.67;;;1.10;;
23270;SDS011;11804;51.118;17.058;2023-07-20T02:01:00;1.67;;;1.02;;
23270;SDS011;11804;51.118;17.058;2023-07-20T02:03:28;2.12;;;1.30;;
23270;SDS011;11804;51.118;17.058;2023-07-20T02:05:56;0.85;;;0.80;;
23270;SDS011;11804;51.118;17.058;2023-07-20T02:08:24;1.98;;;1.27;;
23270;SDS011;11804;51.118;17.058;2023-07-20T02:10:52;2.55;;;1.15;;
23270;SDS011;11804;51.118;17.058;2023-07-20T02:13:19;1.00;;;0.90;;
23270;SDS011;11804;51.118;17.058;2023-07-20T02:15:47;1.57;;;1.20;;
23270;SDS011;11804;51.118;17.058;2023-07-20T02:18:15;1.95;;;1.15;;
23270;SDS011;11804;51.118;17.058;2023-07-20T02:20:42;1.30;;;0.90;;
23270;SDS011;11804;51.118;17.058;2023-07-20T02:23:10;1.50;;;1.12;;
23270;SDS011;11804;51.118;17.058;2023-07-20T02:25:38;1.20;;;0.90;;
23270;SDS011;11804;51.118;17.058;2023-07-20T02:28:07;1.70;;;1.10;;
23270;SDS011;11804;51.118;17.058;2023-07-20T02:30:39;2.15;;;1.20;;
23270;SDS011;11804;51.118;17.058;2023-07-20T02:33:07;1.37;;;1.07;;
23270;SDS011;11804;51.118;17.058;2023-07-20T02:35:34;1.37;;;0.85;;
23270;SDS011;11804;51.118;17.058;2023-07-20T02:38:02;1.12;;;0.93;;
23270;SDS011;11804;51.118;17.058;2023-07-20T02:40:30;2.65;;;1.20;;
23270;SDS011;11804;51.118;17.058;2023-07-20T02:42:57;2.67;;;1.40;;
23270;SDS011;11804;51.118;17.058;2023-07-20T02:45:26;1.95;;;1.07;;
23270;SDS011;11804;51.118;17.058;2023-07-20T02:47:53;1.32;;;1.02;;
23270;SDS011;11804;51.118;17.058;2023-07-20T02:50:21;1.90;;;1.17;;
23270;SDS011;11804;51.118;17.058;2023-07-20T02:52:49;2.58;;;1.00;;
23270;SDS011;11804;51.118;17.058;2023-07-20T02:55:17;1.80;;;1.00;;
23270;SDS011;11804;51.118;17.058;2023-07-20T02:57:45;1.32;;;1.02;;
23270;SDS011;11804;51.118;17.058;2023-07-20T03:00:12;1.72;;;1.05;;
23270;SDS011;11804;51.118;17.058;2023-07-20T03:02:42;2.10;;;1.00;;
23270;SDS011;11804;51.118;17.058;2023-07-20T03:05:11;1.80;;;1.02;;
23270;SDS011;11804;51.118;17.058;2023-07-20T03:07:38;1.55;;;1.07;;
23270;SDS011;11804;51.118;17.058;2023-07-20T03:10:08;1.80;;;1.20;;
23270;SDS011;11804;51.118;17.058;2023-07-20T03:12:36;1.50;;;0.88;;
23270;SDS011;11804;51.118;17.058;2023-07-20T03:15:04;1.57;;;1.10;;
23270;SDS011;11804;51.118;17.058;2023-07-20T03:17:32;1.92;;;1.30;;
23270;SDS011;11804;51.118;17.058;2023-07-20T03:20:00;1.80;;;0.88;;
23270;SDS011;11804;51.118;17.058;2023-07-20T03:22:28;1.87;;;1.15;;
23270;SDS011;11804;51.118;17.058;2023-07-20T03:24:56;2.67;;;1.42;;
23270;SDS011;11804;51.118;17.058;2023-07-20T03:27:24;1.87;;;1.35;;
23270;SDS011;11804;51.118;17.058;2023-07-20T03:29:51;2.30;;;1.10;;
23270;SDS011;11804;51.118;17.058;2023-07-20T03:32:19;2.22;;;1.10;;
23270;SDS011;11804;51.118;17.058;2023-07-20T03:34:46;3.12;;;1.62;;
23270;SDS011;11804;51.118;17.058;2023-07-20T03:37:14;1.82;;;1.10;;
23270;SDS011;11804;51.118;17.058;2023-07-20T03:39:42;2.17;;;1.42;;
23270;SDS011;11804;51.118;17.058;2023-07-20T03:42:09;2.25;;;1.35;;
23270;SDS011;11804;51.118;17.058;2023-07-20T03:44:37;3.95;;;1.70;;
23270;SDS011;11804;51.118;17.058;2023-07-20T03:47:05;2.45;;;1.60;;
23270;SDS011;11804;51.118;17.058;2023-07-20T03:49:32;2.60;;;1.67;;
23270;SDS011;11804;51.118;17.058;2023-07-20T03:52:00;1.85;;;1.47;;
23270;SDS011;11804;51.118;17.058;2023-07-20T03:54:30;5.37;;;1.77;;
23270;SDS011;11804;51.118;17.058;2023-07-20T03:56:57;2.65;;;1.57;;
23270;SDS011;11804;51.118;17.058;2023-07-20T03:59:26;3.05;;;1.50;;
23270;SDS011;11804;51.118;17.058;2023-07-20T04:01:54;1.50;;;1.20;;
23270;SDS011;11804;51.118;17.058;2023-07-20T04:04:21;2.20;;;1.50;;
23270;SDS011;11804;51.118;17.058;2023-07-20T04:06:49;2.50;;;1.75;;
23270;SDS011;11804;51.118;17.058;2023-07-20T04:09:16;3.52;;;1.85;;
23270;SDS011;11804;51.118;17.058;2023-07-20T04:11:44;3.10;;;1.70;;
23270;SDS011;11804;51.118;17.058;2023-07-20T04:14:11;3.22;;;1.62;;
23270;SDS011;11804;51.118;17.058;2023-07-20T04:16:39;2.05;;;1.57;;
23270;SDS011;11804;51.118;17.058;2023-07-20T04:19:06;2.98;;;1.87;;
23270;SDS011;11804;51.118;17.058;2023-07-20T04:21:39;5.03;;;2.30;;
23270;SDS011;11804;51.118;17.058;2023-07-20T04:24:05;2.25;;;1.50;;
23270;SDS011;11804;51.118;17.058;2023-07-20T04:26:33;2.20;;;1.65;;
23270;SDS011;11804;51.118;17.058;2023-07-20T04:29:01;1.70;;;1.37;;
23270;SDS011;11804;51.118;17.058;2023-07-20T04:31:29;1.80;;;1.42;;
23270;SDS011;11804;51.118;17.058;2023-07-20T04:33:58;3.12;;;1.47;;
23270;SDS011;11804;51.118;17.058;2023-07-20T04:36:26;1.98;;;1.55;;
23270;SDS011;11804;51.118;17.058;2023-07-20T04:38:54;5.10;;;1.55;;
23270;SDS011;11804;51.118;17.058;2023-07-20T04:41:22;1.98;;;1.42;;
23270;SDS011;11804;51.118;17.058;2023-07-20T04:43:51;3.20;;;2.08;;
23270;SDS011;11804;51.118;17.058;2023-07-20T04:46:18;2.60;;;1.52;;
23270;SDS011;11804;51.118;17.058;2023-07-20T04:48:47;2.85;;;1.60;;
23270;SDS011;11804;51.118;17.058;2023-07-20T04:51:14;3.72;;;2.00;;
23270;SDS011;11804;51.118;17.058;2023-07-20T04:53:44;2.98;;;1.90;;
23270;SDS011;11804;51.118;17.058;2023-07-20T04:56:11;2.60;;;2.02;;
23270;SDS011;11804;51.118;17.058;2023-07-20T04:58:39;3.17;;;2.00;;
23270;SDS011;11804;51.118;17.058;2023-07-20T05:01:07;5.95;;;2.00;;
23270;SDS011;11804;51.118;17.058;2023-07-20T05:03:35;6.15;;;2.15;;
23270;SDS011;11804;51.118;17.058;2023-07-20T05:06:03;6.55;;;2.35;;
23270;SDS011;11804;51.118;17.058;2023-07-20T05:08:30;3.62;;;2.17;;
23270;SDS011;11804;51.118;17.058;2023-07-20T05:10:59;4.60;;;2.20;;
23270;SDS011;11804;51.118;17.058;2023-07-20T05:13:26;3.25;;;2.20;;
23270;SDS011;11804;51.118;17.058;2023-07-20T05:15:54;6.17;;;3.05;;
23270;SDS011;11804;51.118;17.058;2023-07-20T05:18:22;4.72;;;2.67;;
23270;SDS011;11804;51.118;17.058;2023-07-20T05:20:50;4.58;;;2.75;;
23270;SDS011;11804;51.118;17.058;2023-07-20T05:23:20;3.80;;;2.65;;
23270;SDS011;11804;51.118;17.058;2023-07-20T05:25:58;4.28;;;2.20;;
23270;SDS011;11804;51.118;17.058;2023-07-20T05:28:23;3.85;;;2.42;;
23270;SDS011;11804;51.118;17.058;2023-07-20T05:30:52;3.75;;;2.20;;
23270;SDS011;11804;51.118;17.058;2023-07-20T05:33:21;7.12;;;2.00;;
23270;SDS011;11804;51.118;17.058;2023-07-20T05:35:48;3.58;;;2.27;;
23270;SDS011;11804;51.118;17.058;2023-07-20T05:38:16;4.10;;;2.42;;
23270;SDS011;11804;51.118;17.058;2023-07-20T05:40:44;3.25;;;2.27;;
23270;SDS011;11804;51.118;17.058;2023-07-20T05:43:12;4.20;;;1.87;;
23270;SDS011;11804;51.118;17.058;2023-07-20T05:45:43;3.72;;;2.27;;
23270;SDS011;11804;51.118;17.058;2023-07-20T05:48:13;5.62;;;2.20;;
23270;SDS011;11804;51.118;17.058;2023-07-20T05:50:42;6.17;;;2.90;;
23270;SDS011;11804;51.118;17.058;2023-07-20T05:53:10;5.72;;;2.62;;
23270;SDS011;11804;51.118;17.058;2023-07-20T05:55:38;3.45;;;2.05;;
23270;SDS011;11804;51.118;17.058;2023-07-20T05:58:06;7.72;;;3.17;;
23270;SDS011;11804;51.118;17.058;2023-07-20T06:00:34;5.78;;;3.87;;
23270;SDS011;11804;51.118;17.058;2023-07-20T06:03:01;6.05;;;3.05;;
23270;SDS011;11804;51.118;17.058;2023-07-20T06:05:29;4.28;;;3.00;;
23270;SDS011;11804;51.118;17.058;2023-07-20T06:07:57;3.40;;;2.62;;
23270;SDS011;11804;51.118;17.058;2023-07-20T06:10:26;3.98;;;2.75;;
23270;SDS011;11804;51.118;17.058;2023-07-20T06:12:53;4.37;;;2.45;;
23270;SDS011;11804;51.118;17.058;2023-07-20T06:15:26;4.50;;;2.65;;
23270;SDS011;11804;51.118;17.058;2023-07-20T06:17:55;5.22;;;3.10;;
23270;SDS011;11804;51.118;17.058;2023-07-20T06:20:23;4.92;;;2.58;;
23270;SDS011;11804;51.118;17.058;2023-07-20T06:22:52;6.83;;;2.70;;
23270;SDS011;11804;51.118;17.058;2023-07-20T06:25:20;5.80;;;2.55;;
23270;SDS011;11804;51.118;17.058;2023-07-20T06:27:49;4.92;;;3.40;;
23270;SDS011;11804;51.118;17.058;2023-07-20T06:30:18;2.58;;;2.20;;
23270;SDS011;11804;51.118;17.058;2023-07-20T06:32:46;5.17;;;2.50;;
23270;SDS011;11804;51.118;17.058;2023-07-20T06:35:14;6.37;;;2.30;;
23270;SDS011;11804;51.118;17.058;2023-07-20T06:37:43;3.12;;;2.00;;
23270;SDS011;11804;51.118;17.058;2023-07-20T06:40:11;2.98;;;2.37;;
23270;SDS011;11804;51.118;17.058;2023-07-20T06:42:39;3.67;;;2.15;;
23270;SDS011;11804;51.118;17.058;2023-07-20T06:45:06;6.92;;;3.17;;
23270;SDS011;11804;51.118;17.058;2023-07-20T06:47:34;3.55;;;2.40;;
23270;SDS011;11804;51.118;17.058;2023-07-20T06:50:03;2.80;;;2.12;;
23270;SDS011;11804;51.118;17.058;2023-07-20T06:52:33;11.45;;;4.35;;
23270;SDS011;11804;51.118;17.058;2023-07-20T06:55:00;4.22;;;2.85;;
23270;SDS011;11804;51.118;17.058;2023-07-20T06:57:28;5.80;;;3.17;;
23270;SDS011;11804;51.118;17.058;2023-07-20T06:59:56;15.15;;;3.58;;
23270;SDS011;11804;51.118;17.058;2023-07-20T07:02:23;6.10;;;2.40;;
23270;SDS011;11804;51.118;17.058;2023-07-20T07:04:51;4.30;;;2.60;;
23270;SDS011;11804;51.118;17.058;2023-07-20T07:07:20;10.18;;;4.03;;
23270;SDS011;11804;51.118;17.058;2023-07-20T07:09:48;9.23;;;2.80;;
23270;SDS011;11804;51.118;17.058;2023-07-20T07:12:17;11.33;;;3.90;;
23270;SDS011;11804;51.118;17.058;2023-07-20T07:14:44;6.97;;;2.42;;
23270;SDS011;11804;51.118;17.058;2023-07-20T07:17:12;4.45;;;2.37;;
23270;SDS011;11804;51.118;17.058;2023-07-20T07:19:40;5.33;;;3.15;;
23270;SDS011;11804;51.118;17.058;2023-07-20T07:22:08;21.15;;;4.08;;
23270;SDS011;11804;51.118;17.058;2023-07-20T07:24:35;8.95;;;3.67;;
23270;SDS011;11804;51.118;17.058;2023-07-20T07:27:03;27.07;;;7.05;;
23270;SDS011;11804;51.118;17.058;2023-07-20T07:29:30;14.30;;;4.60;;
23270;SDS011;11804;51.118;17.058;2023-07-20T07:31:58;11.60;;;4.65;;
23270;SDS011;11804;51.118;17.058;2023-07-20T07:34:27;3.10;;;2.52;;
23270;SDS011;11804;51.118;17.058;2023-07-20T07:36:55;12.47;;;3.67;;
23270;SDS011;11804;51.118;17.058;2023-07-20T07:39:22;9.43;;;3.30;;
23270;SDS011;11804;51.118;17.058;2023-07-20T07:41:51;8.03;;;3.72;;
23270;SDS011;11804;51.118;17.058;2023-07-20T07:44:19;6.65;;;3.60;;
23270;SDS011;11804;51.118;17.058;2023-07-20T07:46:47;5.55;;;2.70;;
23270;SDS011;11804;51.118;17.058;2023-07-20T07:49:15;8.83;;;3.25;;
23270;SDS011;11804;51.118;17.058;2023-07-20T07:51:45;1.95;;;1.75;;
23270;SDS011;11804;51.118;17.058;2023-07-20T07:54:12;3.42;;;2.27;;
23270;SDS011;11804;51.118;17.058;2023-07-20T07:56:40;2.62;;;2.05;;
23270;SDS011;11804;51.118;17.058;2023-07-20T07:59:09;3.15;;;2.40;;
23270;SDS011;11804;51.118;17.058;2023-07-20T08:01:37;8.23;;;3.52;;
23270;SDS011;11804;51.118;17.058;2023-07-20T08:04:05;3.15;;;2.22;;
23270;SDS011;11804;51.118;17.058;2023-07-20T08:06:32;2.70;;;2.22;;
23270;SDS011;11804;51.118;17.058;2023-07-20T08:09:00;7.15;;;2.60;;
23270;SDS011;11804;51.118;17.058;2023-07-20T08:11:28;2.55;;;2.15;;
23270;SDS011;11804;51.118;17.058;2023-07-20T08:13:56;3.77;;;1.75;;
23270;SDS011;11804;51.118;17.058;2023-07-20T08:16:24;3.65;;;1.85;;
23270;SDS011;11804;51.118;17.058;2023-07-20T08:18:51;3.15;;;2.30;;
23270;SDS011;11804;51.118;17.058;2023-07-20T08:21:19;3.40;;;1.85;;
23270;SDS011;11804;51.118;17.058;2023-07-20T08:23:46;2.80;;;1.95;;
23270;SDS011;11804;51.118;17.058;2023-07-20T08:26:14;6.12;;;2.02;;
23270;SDS011;11804;51.118;17.058;2023-07-20T08:28:42;6.28;;;2.05;;
23270;SDS011;11804;51.118;17.058;2023-07-20T08:31:12;4.72;;;2.60;;
23270;SDS011;11804;51.118;17.058;2023-07-20T08:33:39;2.85;;;1.62;;
23270;SDS011;11804;51.118;17.058;2023-07-20T08:36:07;4.03;;;1.87;;
23270;SDS011;11804;51.118;17.058;2023-07-20T08:38:34;4.60;;;2.02;;
23270;SDS011;11804;51.118;17.058;2023-07-20T08:41:02;7.47;;;2.62;;
23270;SDS011;11804;51.118;17.058;2023-07-20T08:43:30;6.17;;;2.42;;
23270;SDS011;11804;51.118;17.058;2023-07-20T08:45:58;2.45;;;1.60;;
23270;SDS011;11804;51.118;17.058;2023-07-20T08:48:28;8.03;;;2.95;;
23270;SDS011;11804;51.118;17.058;2023-07-20T08:50:57;2.85;;;1.42;;
23270;SDS011;11804;51.118;17.058;2023-07-20T08:53:26;2.92;;;1.45;;
23270;SDS011;11804;51.118;17.058;2023-07-20T08:55:56;1.35;;;1.10;;
23270;SDS011;11804;51.118;17.058;2023-07-20T08:58:24;1.20;;;1.10;;
23270;SDS011;11804;51.118;17.058;2023-07-20T09:00:54;2.67;;;1.12;;
23270;SDS011;11804;51.118;17.058;2023-07-20T09:03:24;2.33;;;1.35;;
23270;SDS011;11804;51.118;17.058;2023-07-20T09:05:52;1.50;;;1.27;;
23270;SDS011;11804;51.118;17.058;2023-07-20T09:08:20;3.83;;;1.40;;
23270;SDS011;11804;51.118;17.058;2023-07-20T09:10:47;2.92;;;1.10;;
23270;SDS011;11804;51.118;17.058;2023-07-20T09:13:15;1.65;;;1.20;;
23270;SDS011;11804;51.118;17.058;2023-07-20T09:15:49;1.17;;;1.07;;
23270;SDS011;11804;51.118;17.058;2023-07-20T09:18:23;1.75;;;1.35;;
23270;SDS011;11804;51.118;17.058;2023-07-20T09:20:52;2.15;;;1.37;;
23270;SDS011;11804;51.118;17.058;2023-07-20T09:23:22;1.55;;;1.32;;
23270;SDS011;11804;51.118;17.058;2023-07-20T09:25:52;1.30;;;1.20;;
23270;SDS011;11804;51.118;17.058;2023-07-20T09:28:20;2.08;;;1.20;;
23270;SDS011;11804;51.118;17.058;2023-07-20T09:30:48;1.50;;;1.32;;
23270;SDS011;11804;51.118;17.058;2023-07-20T09:33:19;2.02;;;1.35;;
23270;SDS011;11804;51.118;17.058;2023-07-20T09:35:50;2.22;;;1.42;;
23270;SDS011;11804;51.118;17.058;2023-07-20T09:38:18;1.70;;;1.45;;
23270;SDS011;11804;51.118;17.058;2023-07-20T09:40:46;1.42;;;1.20;;
23270;SDS011;11804;51.118;17.058;2023-07-20T09:43:15;2.58;;;1.45;;
23270;SDS011;11804;51.118;17.058;2023-07-20T09:45:43;2.00;;;1.40;;
23270;SDS011;11804;51.118;17.058;2023-07-20T09:48:11;1.82;;;1.12;;
23270;SDS011;11804;51.118;17.058;2023-07-20T09:50:40;1.20;;;1.10;;
23270;SDS011;11804;51.118;17.058;2023-07-20T09:53:11;1.20;;;0.90;;
23270;SDS011;11804;51.118;17.058;2023-07-20T09:55:41;0.88;;;0.88;;
23270;SDS011;11804;51.118;17.058;2023-07-20T09:58:10;1.25;;;1.02;;
23270;SDS011;11804;51.118;17.058;2023-07-20T10:00:38;1.82;;;1.22;;
23270;SDS011;11804;51.118;17.058;2023-07-20T10:03:08;1.10;;;1.00;;
23270;SDS011;11804;51.118;17.058;2023-07-20T10:05:39;1.62;;;1.20;;
23270;SDS011;11804;51.118;17.058;2023-07-20T10:08:10;1.72;;;0.70;;
23270;SDS011;11804;51.118;17.058;2023-07-20T10:10:40;1.27;;;0.90;;
23270;SDS011;11804;51.118;17.058;2023-07-20T10:13:21;1.20;;;1.00;;
23270;SDS011;11804;51.118;17.058;2023-07-20T10:15:50;0.95;;;0.82;;
23270;SDS011;11804;51.118;17.058;2023-07-20T10:18:22;0.85;;;0.70;;
23270;SDS011;11804;51.118;17.058;2023-07-20T10:20:51;0.95;;;0.90;;
23270;SDS011;11804;51.118;17.058;2023-07-20T10:23:21;4.75;;;0.98;;
23270;SDS011;11804;51.118;17.058;2023-07-20T10:25:49;1.50;;;0.93;;
23270;SDS011;11804;51.118;17.058;2023-07-20T10:28:17;1.55;;;0.80;;
23270;SDS011;11804;51.118;17.058;2023-07-20T10:30:45;2.15;;;0.70;;
23270;SDS011;11804;51.118;17.058;2023-07-20T10:33:14;0.75;;;0.75;;
23270;SDS011;11804;51.118;17.058;2023-07-20T10:35:53;1.45;;;0.95;;
23270;SDS011;11804;51.118;17.058;2023-07-20T10:41:21;1.55;;;1.15;;
23270;SDS011;11804;51.118;17.058;2023-07-20T10:44:02;2.65;;;1.00;;
23270;SDS011;11804;51.118;17.058;2023-07-20T10:49:08;1.20;;;0.72;;
23270;SDS011;11804;51.118;17.058;2023-07-20T10:51:39;3.62;;;1.42;;
23270;SDS011;11804;51.118;17.058;2023-07-20T10:54:10;1.10;;;0.88;;
23270;SDS011;11804;51.118;17.058;2023-07-20T10:56:50;1.22;;;0.90;;
23270;SDS011;11804;51.118;17.058;2023-07-20T10:59:35;4.00;;;1.90;;
23270;SDS011;11804;51.118;17.058;2023-07-20T11:01:47;1.12;;;0.90;;
23270;SDS011;11804;51.118;17.058;2023-07-20T11:04:17;2.50;;;1.00;;
23270;SDS011;11804;51.118;17.058;2023-07-20T11:06:45;1.52;;;1.10;;
23270;SDS011;11804;51.118;17.058;2023-07-20T11:09:15;0.98;;;0.90;;
23270;SDS011;11804;51.118;17.058;2023-07-20T11:11:43;2.15;;;0.80;;
23270;SDS011;11804;51.118;17.058;2023-07-20T11:14:25;1.55;;;1.00;;
23270;SDS011;11804;51.118;17.058;2023-07-20T11:16:54;1.00;;;0.90;;
23270;SDS011;11804;51.118;17.058;2023-07-20T11:19:25;2.47;;;1.45;;
23270;SDS011;11804;51.118;17.058;2023-07-20T11:21:54;2.85;;;0.90;;
23270;SDS011;11804;51.118;17.058;2023-07-20T11:24:23;1.40;;;1.20;;
23270;SDS011;11804;51.118;17.058;2023-07-20T11:26:53;1.70;;;0.90;;
23270;SDS011;11804;51.118;17.058;2023-07-20T11:29:21;2.30;;;1.12;;
23270;SDS011;11804;51.118;17.058;2023-07-20T11:31:51;1.22;;;1.02;;
23270;SDS011;11804;51.118;17.058;2023-07-20T11:34:20;0.90;;;0.90;;
23270;SDS011;11804;51.118;17.058;2023-07-20T11:36:49;2.12;;;1.20;;
23270;SDS011;11804;51.118;17.058;2023-07-20T11:39:19;1.70;;;1.40;;
23270;SDS011;11804;51.118;17.058;2023-07-20T11:41:49;0.98;;;0.82;;
23270;SDS011;11804;51.118;17.058;2023-07-20T11:44:23;1.47;;;1.00;;
23270;SDS011;11804;51.118;17.058;2023-07-20T11:47:02;1.98;;;1.35;;
23270;SDS011;11804;51.118;17.058;2023-07-20T11:49:35;4.12;;;1.05;;
23270;SDS011;11804;51.118;17.058;2023-07-20T11:52:10;2.60;;;1.20;;
23270;SDS011;11804;51.118;17.058;2023-07-20T11:54:41;1.50;;;1.20;;
23270;SDS011;11804;51.118;17.058;2023-07-20T11:57:21;2.22;;;1.10;;
23270;SDS011;11804;51.118;17.058;2023-07-20T12:00:03;1.67;;;1.40;;
23270;SDS011;11804;51.118;17.058;2023-07-20T12:02:30;2.15;;;1.70;;
23270;SDS011;11804;51.118;17.058;2023-07-20T12:04:58;2.52;;;2.12;;
23270;SDS011;11804;51.118;17.058;2023-07-20T12:07:26;2.05;;;1.65;;
23270;SDS011;11804;51.118;17.058;2023-07-20T12:10:05;2.35;;;1.95;;
23270;SDS011;11804;51.118;17.058;2023-07-20T12:12:40;2.72;;;1.85;;
23270;SDS011;11804;51.118;17.058;2023-07-20T12:15:25;2.45;;;2.00;;
23270;SDS011;11804;51.118;17.058;2023-07-20T12:17:55;3.40;;;2.10;;
23270;SDS011;11804;51.118;17.058;2023-07-20T12:20:28;2.27;;;1.70;;
23270;SDS011;11804;51.118;17.058;2023-07-20T12:23:11;3.30;;;2.30;;
23270;SDS011;11804;51.118;17.058;2023-07-20T12:25:40;1.50;;;1.40;;
23270;SDS011;11804;51.118;17.058;2023-07-20T12:28:13;1.30;;;1.20;;
23270;SDS011;11804;51.118;17.058;2023-07-20T12:30:43;3.45;;;1.92;;
23270;SDS011;11804;51.118;17.058;2023-07-20T12:33:11;2.83;;;2.20;;
23270;SDS011;11804;51.118;17.058;2023-07-20T12:35:41;1.87;;;1.50;;
23270;SDS011;11804;51.118;17.058;2023-07-20T12:38:14;2.20;;;1.32;;
23270;SDS011;11804;51.118;17.058;2023-07-20T12:40:42;1.67;;;1.25;;
23270;SDS011;11804;51.118;17.058;2023-07-20T12:43:10;2.15;;;1.60;;
23270;SDS011;11804;51.118;17.058;2023-07-20T12:45:37;1.40;;;1.30;;
23270;SDS011;11804;51.118;17.058;2023-07-20T12:48:05;2.27;;;1.87;;
23270;SDS011;11804;51.118;17.058;2023-07-20T12:50:32;2.33;;;1.65;;
23270;SDS011;11804;51.118;17.058;2023-07-20T12:53:00;2.25;;;1.62;;
23270;SDS011;11804;51.118;17.058;2023-07-20T12:55:29;1.62;;;1.52;;
23270;SDS011;11804;51.118;17.058;2023-07-20T12:57:57;3.95;;;2.37;;
23270;SDS011;11804;51.118;17.058;2023-07-20T13:00:24;2.40;;;2.00;;
23270;SDS011;11804;51.118;17.058;2023-07-20T13:02:52;1.50;;;1.40;;
23270;SDS011;11804;51.118;17.058;2023-07-20T13:05:19;1.45;;;1.27;;
23270;SDS011;11804;51.118;17.058;2023-07-20T13:07:47;1.72;;;1.40;;
23270;SDS011;11804;51.118;17.058;2023-07-20T13:10:15;1.98;;;1.37;;
23270;SDS011;11804;51.118;17.058;2023-07-20T13:12:43;1.17;;;1.00;;
23270;SDS011;11804;51.118;17.058;2023-07-20T13:15:10;1.17;;;1.02;;
23270;SDS011;11804;51.118;17.058;2023-07-20T13:17:38;2.27;;;1.20;;
23270;SDS011;11804;51.118;17.058;2023-07-20T13:20:07;2.22;;;1.20;;
23270;SDS011;11804;51.118;17.058;2023-07-20T13:22:36;1.85;;;1.62;;
23270;SDS011;11804;51.118;17.058;2023-07-20T13:25:05;1.70;;;1.17;;
23270;SDS011;11804;51.118;17.058;2023-07-20T13:27:34;1.65;;;1.47;;
23270;SDS011;11804;51.118;17.058;2023-07-20T13:30:02;3.10;;;2.17;;
23270;SDS011;11804;51.118;17.058;2023-07-20T13:32:35;5.80;;;2.00;;
23270;SDS011;11804;51.118;17.058;2023-07-20T13:35:03;2.85;;;1.85;;
23270;SDS011;11804;51.118;17.058;2023-07-20T13:37:31;4.45;;;1.12;;
23270;SDS011;11804;51.118;17.058;2023-07-20T13:39:59;1.57;;;1.15;;
23270;SDS011;11804;51.118;17.058;2023-07-20T13:42:26;2.25;;;1.30;;
23270;SDS011;11804;51.118;17.058;2023-07-20T13:44:54;2.17;;;1.50;;
23270;SDS011;11804;51.118;17.058;2023-07-20T13:47:21;3.00;;;1.37;;
23270;SDS011;11804;51.118;17.058;2023-07-20T13:49:49;2.72;;;1.60;;
23270;SDS011;11804;51.118;17.058;2023-07-20T13:52:17;1.70;;;1.20;;
23270;SDS011;11804;51.118;17.058;2023-07-20T13:54:44;1.10;;;1.00;;
23270;SDS011;11804;51.118;17.058;2023-07-20T13:57:12;1.92;;;1.25;;
23270;SDS011;11804;51.118;17.058;2023-07-20T13:59:43;1.55;;;1.20;;
23270;SDS011;11804;51.118;17.058;2023-07-20T14:02:11;1.67;;;1.30;;
23270;SDS011;11804;51.118;17.058;2023-07-20T14:04:40;2.55;;;1.00;;
23270;SDS011;11804;51.118;17.058;2023-07-20T14:07:08;1.27;;;0.95;;
23270;SDS011;11804;51.118;17.058;2023-07-20T14:09:36;1.52;;;1.02;;
23270;SDS011;11804;51.118;17.058;2023-07-20T14:12:04;1.30;;;1.20;;
23270;SDS011;11804;51.118;17.058;2023-07-20T14:14:34;1.30;;;1.10;;
23270;SDS011;11804;51.118;17.058;2023-07-20T14:17:01;1.40;;;1.25;;
23270;SDS011;11804;51.118;17.058;2023-07-20T14:19:29;1.20;;;1.10;;
23270;SDS011;11804;51.118;17.058;2023-07-20T14:21:57;1.50;;;1.30;;
23270;SDS011;11804;51.118;17.058;2023-07-20T14:24:25;1.50;;;1.27;;
23270;SDS011;11804;51.118;17.058;2023-07-20T14:26:53;1.70;;;1.30;;
23270;SDS011;11804;51.118;17.058;2023-07-20T14:29:21;1.37;;;1.20;;
23270;SDS011;11804;51.118;17.058;2023-07-20T14:31:48;1.82;;;0.98;;
23270;SDS011;11804;51.118;17.058;2023-07-20T14:34:17;0.80;;;0.80;;
23270;SDS011;11804;51.118;17.058;2023-07-20T14:36:45;1.72;;;1.22;;
23270;SDS011;11804;51.118;17.058;2023-07-20T14:39:13;1.65;;;1.20;;
23270;SDS011;11804;51.118;17.058;2023-07-20T14:41:40;2.00;;;1.62;;
23270;SDS011;11804;51.118;17.058;2023-07-20T14:44:08;1.27;;;0.90;;
23270;SDS011;11804;51.118;17.058;2023-07-20T14:46:36;1.50;;;1.30;;
23270;SDS011;11804;51.118;17.058;2023-07-20T14:49:03;1.80;;;1.27;;
23270;SDS011;11804;51.118;17.058;2023-07-20T14:51:31;1.35;;;1.20;;
23270;SDS011;11804;51.118;17.058;2023-07-20T14:53:59;1.45;;;1.35;;
23270;SDS011;11804;51.118;17.058;2023-07-20T14:56:27;1.27;;;1.17;;
23270;SDS011;11804;51.118;17.058;2023-07-20T14:58:54;2.12;;;1.70;;